createdAt,value
2023-06-08T00:01:01.098Z,10.77
2023-06-08T00:03:28.931Z,10.63
2023-06-08T00:06:00.069Z,10.77
2023-06-08T00:08:30.705Z,10.63
2023-06-08T00:10:58.448Z,11.00
2023-06-08T00:13:26.161Z,11.57
2023-06-08T00:15:53.855Z,11.00
2023-06-08T00:18:21.656Z,12.37
2023-06-08T00:20:49.390Z,10.87
2023-06-08T00:23:17.097Z,11.87
2023-06-08T00:25:46.199Z,11.83
2023-06-08T00:28:13.901Z,12.47
2023-06-08T00:30:41.665Z,10.77
2023-06-08T00:33:09.547Z,12.50
2023-06-08T00:35:37.249Z,12.20
2023-06-08T00:38:04.978Z,12.27
2023-06-08T00:40:32.653Z,11.23
2023-06-08T00:43:01.732Z,12.07
2023-06-08T00:45:29.464Z,14.13
2023-06-08T00:47:57.253Z,9.30
2023-06-08T00:50:25.788Z,12.40
2023-06-08T00:52:53.610Z,13.97
2023-06-08T00:55:22.122Z,12.33
2023-06-08T00:57:51.199Z,13.20
2023-06-08T01:00:20.609Z,13.53
2023-06-08T01:02:49.299Z,12.83
2023-06-08T01:05:18.376Z,13.53
2023-06-08T01:07:54.339Z,14.53
2023-06-08T01:10:29.157Z,12.67
2023-06-08T01:17:43.647Z,12.77
2023-06-08T01:20:30.774Z,18.47
2023-06-08T01:23:10.892Z,14.87
2023-06-08T01:25:41.305Z,17.43
2023-06-08T01:28:14.574Z,16.63
2023-06-08T01:30:43.745Z,15.77
2023-06-08T01:33:13.148Z,10.00
2023-06-08T01:35:41.353Z,16.37
2023-06-08T01:38:15.756Z,16.67
2023-06-08T01:40:47.858Z,17.93
2023-06-08T01:43:16.263Z,16.57
2023-06-08T01:45:48.227Z,16.53
2023-06-08T01:48:16.355Z,16.93
2023-06-08T01:50:45.095Z,17.57
2023-06-08T01:53:12.872Z,17.20
2023-06-08T01:55:40.570Z,15.77
2023-06-08T01:58:09.646Z,14.23
2023-06-08T02:00:37.377Z,17.27
2023-06-08T02:03:05.295Z,15.80
2023-06-08T02:05:33.061Z,15.57
2023-06-08T02:08:00.806Z,19.63
2023-06-08T02:10:29.801Z,17.20
2023-06-08T02:12:57.518Z,18.57
2023-06-08T02:15:26.888Z,18.07
2023-06-08T02:17:54.655Z,18.33
2023-06-08T02:20:22.382Z,17.13
2023-06-08T02:22:50.098Z,17.30
2023-06-08T02:25:17.833Z,16.20
2023-06-08T02:27:45.716Z,16.93
2023-06-08T02:30:15.287Z,16.27
2023-06-08T02:32:46.985Z,15.73
2023-06-08T02:35:15.379Z,14.87
2023-06-08T02:37:43.861Z,15.60
2023-06-08T02:40:12.343Z,16.47
2023-06-08T02:42:40.054Z,15.10
2023-06-08T02:45:08.582Z,14.03
2023-06-08T02:47:36.509Z,16.10
2023-06-08T02:50:06.595Z,16.30
2023-06-08T02:52:35.217Z,15.40
2023-06-08T02:55:02.957Z,15.63
2023-06-08T02:57:30.716Z,16.00
2023-06-08T02:59:58.759Z,15.80
2023-06-08T03:02:28.589Z,16.10
2023-06-08T03:04:59.837Z,16.07
2023-06-08T03:07:29.365Z,14.90
2023-06-08T03:09:57.051Z,18.07
2023-06-08T03:12:24.789Z,16.60
2023-06-08T03:14:54.306Z,15.97
2023-06-08T03:17:22.072Z,15.03
2023-06-08T03:19:49.910Z,17.10
2023-06-08T03:22:17.656Z,15.33
2023-06-08T03:24:49.999Z,17.53
2023-06-08T03:27:18.172Z,15.87
2023-06-08T03:29:46.910Z,16.43
2023-06-08T03:32:14.664Z,15.80
2023-06-08T03:34:45.970Z,14.67
2023-06-08T03:37:13.689Z,14.03
2023-06-08T03:39:41.389Z,15.07
2023-06-08T03:42:10.963Z,13.50
2023-06-08T03:44:38.671Z,16.23
2023-06-08T03:47:10.143Z,17.57
2023-06-08T03:49:37.855Z,17.00
2023-06-08T03:52:06.667Z,16.07
2023-06-08T03:54:34.357Z,15.90
2023-06-08T03:57:02.028Z,17.17
2023-06-08T03:59:31.115Z,16.13
2023-06-08T04:01:58.848Z,17.23
2023-06-08T04:04:30.602Z,14.70
2023-06-08T04:07:01.444Z,14.87
2023-06-08T04:09:29.472Z,14.60
2023-06-08T04:11:57.399Z,14.80
2023-06-08T04:14:25.682Z,15.07
2023-06-08T04:16:54.779Z,14.40
2023-06-08T04:19:22.463Z,14.77
2023-06-08T04:21:50.736Z,14.20
2023-06-08T04:24:18.502Z,13.37
2023-06-08T04:26:46.506Z,13.67
2023-06-08T04:29:14.409Z,14.03
2023-06-08T04:31:42.256Z,9.40
2023-06-08T04:34:11.953Z,14.67
2023-06-08T04:36:41.737Z,14.03
2023-06-08T04:39:09.921Z,14.37
2023-06-08T04:41:37.736Z,13.60
2023-06-08T04:44:06.493Z,13.80
2023-06-08T04:46:38.731Z,14.13
2023-06-08T04:49:07.212Z,10.57
2023-06-08T04:51:40.831Z,12.97
2023-06-08T04:54:14.153Z,13.83
2023-06-08T04:56:42.422Z,12.27
2023-06-08T04:59:10.535Z,12.60
2023-06-08T05:01:38.408Z,11.33
2023-06-08T05:04:08.653Z,12.63
2023-06-08T05:06:38.415Z,11.97
2023-06-08T05:09:06.533Z,11.87
2023-06-08T05:11:34.216Z,12.33
2023-06-08T05:14:01.942Z,11.37
2023-06-08T05:16:29.673Z,11.43
2023-06-08T05:18:57.500Z,11.00
2023-06-08T05:21:25.298Z,11.30
2023-06-08T05:23:54.427Z,10.63
2023-06-08T05:26:23.050Z,11.73
2023-06-08T05:28:50.762Z,10.40
2023-06-08T05:31:18.479Z,10.87
2023-06-08T05:33:46.209Z,9.73
2023-06-08T05:36:14.780Z,9.07
2023-06-08T05:38:43.105Z,10.90
2023-06-08T05:41:12.186Z,11.47
2023-06-08T05:43:39.889Z,9.43
2023-06-08T05:46:07.599Z,8.53
2023-06-08T05:48:35.356Z,10.00
2023-06-08T05:51:04.026Z,8.87
2023-06-08T05:53:32.005Z,9.50
2023-06-08T05:55:59.704Z,10.00
2023-06-08T05:58:40.794Z,9.90
2023-06-08T06:01:16.439Z,9.97
2023-06-08T06:03:44.261Z,9.63
2023-06-08T06:06:13.034Z,11.13
2023-06-08T06:08:44.382Z,10.80
2023-06-08T06:11:12.567Z,10.47
2023-06-08T06:13:41.770Z,8.73
2023-06-08T06:16:09.556Z,9.80
2023-06-08T06:18:37.897Z,9.53
2023-06-08T06:21:05.621Z,10.30
2023-06-08T06:23:33.377Z,10.03
2023-06-08T06:26:01.142Z,9.50
2023-06-08T06:28:28.964Z,10.63
2023-06-08T06:30:58.038Z,9.90
2023-06-08T06:33:26.017Z,9.30
2023-06-08T06:35:54.981Z,8.13
2023-06-08T06:38:22.856Z,8.53
2023-06-08T06:40:53.570Z,9.43
2023-06-08T06:43:22.138Z,11.23
2023-06-08T06:45:51.850Z,10.30
2023-06-08T06:48:23.822Z,9.13
2023-06-08T06:50:53.902Z,9.03
2023-06-08T06:53:21.713Z,9.30
2023-06-08T06:55:49.628Z,8.50
2023-06-08T06:58:17.424Z,8.83
2023-06-08T07:00:45.549Z,9.33
2023-06-08T07:03:13.830Z,9.07
2023-06-08T07:05:43.016Z,8.37
2023-06-08T07:08:11.433Z,8.67
2023-06-08T07:10:39.161Z,9.33
2023-06-08T07:13:06.894Z,8.70
2023-06-08T07:15:34.878Z,8.37
2023-06-08T07:18:02.616Z,7.30
2023-06-08T07:20:30.320Z,9.00
2023-06-08T07:23:07.626Z,8.97
2023-06-08T07:26:26.773Z,8.57
2023-06-08T07:28:34.965Z,8.30
2023-06-08T07:31:02.705Z,8.63
2023-06-08T07:33:30.515Z,9.30
2023-06-08T07:35:58.228Z,8.70
2023-06-08T07:38:27.417Z,8.63
2023-06-08T07:40:55.692Z,9.53
2023-06-08T07:43:23.390Z,8.67
2023-06-08T07:45:51.758Z,8.90
2023-06-08T07:48:19.493Z,9.10
2023-06-08T07:50:47.210Z,9.50
2023-06-08T07:53:16.076Z,9.97
2023-06-08T07:55:45.169Z,8.73
2023-06-08T07:58:12.918Z,9.47
2023-06-08T08:00:41.676Z,9.07
2023-06-08T08:03:09.579Z,8.80
2023-06-08T08:05:37.444Z,9.93
2023-06-08T08:08:05.463Z,9.47
2023-06-08T08:10:33.154Z,9.10
2023-06-08T08:13:02.239Z,9.27
2023-06-08T08:15:29.937Z,9.30
2023-06-08T08:17:58.222Z,9.73
2023-06-08T08:20:25.948Z,9.43
2023-06-08T08:22:53.650Z,8.73
2023-06-08T08:25:21.818Z,10.23
2023-06-08T08:27:49.541Z,10.00
2023-06-08T08:30:19.046Z,9.43
2023-06-08T08:32:46.936Z,9.80
2023-06-08T08:35:15.593Z,8.40
2023-06-08T08:37:43.543Z,9.30
2023-06-08T08:40:12.535Z,9.53
2023-06-08T08:42:44.469Z,8.30
2023-06-08T08:45:14.557Z,8.40
2023-06-08T08:47:43.846Z,8.00
2023-06-08T08:50:18.028Z,7.00
2023-06-08T08:52:47.156Z,7.57
2023-06-08T08:55:25.956Z,8.27
2023-06-08T08:58:02.629Z,8.03
2023-06-08T09:00:32.531Z,7.33
2023-06-08T09:03:02.524Z,6.83
2023-06-08T09:05:30.496Z,7.07
2023-06-08T09:07:58.247Z,7.33
2023-06-08T09:10:27.985Z,6.90
2023-06-08T09:12:58.098Z,7.00
2023-06-08T09:15:28.779Z,6.73
2023-06-08T09:17:58.433Z,7.23
2023-06-08T09:20:32.383Z,6.77
2023-06-08T09:23:00.192Z,7.23
2023-06-08T09:25:39.336Z,6.90
2023-06-08T09:28:17.536Z,6.80
2023-06-08T09:30:46.339Z,7.10
2023-06-08T09:33:22.412Z,6.97
2023-06-08T09:36:06.125Z,7.03
2023-06-08T09:38:34.862Z,7.17
2023-06-08T09:41:16.135Z,6.80
2023-06-08T09:43:44.769Z,7.13
2023-06-08T09:46:17.418Z,6.27
2023-06-08T09:48:55.089Z,6.70
2023-06-08T09:51:25.698Z,6.10
2023-06-08T09:53:56.429Z,7.20
2023-06-08T09:56:24.516Z,6.73
2023-06-08T09:58:53.408Z,6.97
2023-06-08T10:01:24.110Z,6.50
2023-06-08T10:03:54.976Z,5.90
2023-06-08T10:06:26.763Z,6.30
2023-06-08T10:08:55.868Z,6.83
2023-06-08T10:11:23.782Z,6.67
2023-06-08T10:13:52.185Z,6.57
2023-06-08T10:16:20.248Z,7.03
2023-06-08T10:18:48.712Z,6.50
2023-06-08T10:21:16.543Z,5.70
2023-06-08T10:23:46.131Z,7.13
2023-06-08T10:26:14.304Z,5.67
2023-06-08T10:29:20.873Z,6.07
2023-06-08T10:31:50.326Z,6.07
2023-06-08T10:34:18.633Z,6.30
2023-06-08T10:36:46.685Z,6.27
2023-06-08T10:39:17.786Z,5.60
2023-06-08T10:41:47.012Z,6.67
2023-06-08T10:44:32.390Z,6.07
2023-06-08T10:47:04.303Z,6.30
2023-06-08T10:49:35.776Z,6.47
2023-06-08T10:52:04.782Z,5.67
2023-06-08T10:55:03.785Z,5.37
2023-06-08T10:57:40.910Z,5.77
2023-06-08T11:00:45.238Z,5.90
2023-06-08T11:03:14.661Z,5.73
2023-06-08T11:05:44.447Z,5.80
2023-06-08T11:08:12.296Z,6.03
2023-06-08T11:10:41.981Z,5.77
2023-06-08T11:13:11.283Z,5.40
2023-06-08T11:15:40.380Z,5.80
2023-06-08T11:18:09.453Z,5.87
2023-06-08T11:20:38.615Z,5.17
2023-06-08T11:23:08.649Z,5.83
2023-06-08T11:25:37.050Z,5.53
2023-06-08T11:28:08.429Z,6.03
2023-06-08T11:30:36.826Z,6.17
2023-06-08T11:33:06.493Z,6.20
2023-06-08T11:35:35.041Z,5.53
2023-06-08T11:38:03.581Z,6.40
2023-06-08T11:40:32.683Z,5.50
2023-06-08T11:43:01.792Z,5.07
2023-06-08T11:45:31.999Z,4.80
2023-06-08T11:48:15.447Z,5.40
2023-06-08T11:50:48.349Z,5.77
2023-06-08T11:53:18.156Z,5.90
2023-06-08T11:55:47.778Z,6.00
2023-06-08T11:58:15.970Z,5.43
2023-06-08T12:00:46.302Z,4.40
2023-06-08T12:03:14.141Z,5.50
2023-06-08T12:05:44.595Z,5.13
2023-06-08T12:08:16.015Z,4.70
2023-06-08T12:10:47.667Z,5.27
2023-06-08T12:13:17.099Z,5.10
2023-06-08T12:15:48.905Z,4.57
2023-06-08T12:18:17.912Z,4.90
2023-06-08T12:20:46.968Z,4.47
2023-06-08T12:23:15.994Z,4.30
2023-06-08T12:25:44.472Z,5.10
2023-06-08T12:28:18.113Z,4.30
2023-06-08T12:30:47.361Z,4.10
2023-06-08T12:33:18.645Z,4.03
2023-06-08T12:35:46.578Z,4.50
2023-06-08T12:38:14.553Z,3.93
2023-06-08T12:40:44.838Z,4.10
2023-06-08T12:43:12.581Z,4.40
2023-06-08T12:45:40.275Z,3.97
2023-06-08T12:48:09.547Z,4.30
2023-06-08T12:50:39.325Z,4.17
2023-06-08T12:53:07.072Z,4.67
2023-06-08T12:55:34.933Z,4.57
2023-06-08T12:58:02.637Z,4.30
2023-06-08T13:00:30.537Z,5.37
2023-06-08T13:02:58.663Z,5.13
2023-06-08T13:05:30.266Z,4.23
2023-06-08T13:08:06.646Z,5.17
2023-06-08T13:10:34.518Z,4.40
2023-06-08T13:13:03.601Z,4.23
2023-06-08T13:15:31.520Z,4.07
2023-06-08T13:18:00.515Z,4.13
2023-06-08T13:20:29.799Z,4.40
2023-06-08T13:22:57.503Z,4.27
2023-06-08T13:25:25.295Z,4.20
2023-06-08T13:27:53.021Z,4.00
2023-06-08T13:30:22.530Z,4.53
2023-06-08T13:32:50.469Z,3.90
2023-06-08T13:35:18.426Z,3.83
2023-06-08T13:37:48.238Z,4.10
2023-06-08T13:40:16.020Z,4.50
2023-06-08T13:42:43.753Z,4.40
2023-06-08T13:45:13.109Z,5.03
2023-06-08T13:47:42.054Z,6.60
2023-06-08T13:50:11.819Z,3.97
2023-06-08T13:52:40.247Z,3.70
2023-06-08T13:55:10.255Z,3.90
2023-06-08T13:57:38.064Z,4.80
2023-06-08T14:00:07.763Z,3.47
2023-06-08T14:02:35.880Z,3.90
2023-06-08T14:05:04.752Z,4.57
2023-06-08T14:07:32.858Z,4.17
2023-06-08T14:10:01.619Z,4.07
2023-06-08T14:12:30.669Z,4.03
2023-06-08T14:14:58.388Z,3.93
2023-06-08T14:17:26.832Z,4.70
2023-06-08T14:19:54.588Z,4.23
2023-06-08T14:22:22.343Z,4.93
2023-06-08T14:24:50.085Z,3.70
2023-06-08T14:27:17.759Z,4.63
2023-06-08T14:29:47.366Z,4.70
2023-06-08T14:32:15.202Z,4.37
2023-06-08T14:34:42.896Z,4.57
2023-06-08T14:37:10.651Z,4.33
2023-06-08T14:39:38.350Z,4.80
2023-06-08T14:42:07.686Z,3.63
2023-06-08T14:44:35.716Z,4.63
2023-06-08T14:47:05.364Z,4.37
2023-06-08T14:49:38.066Z,4.47
2023-06-08T14:52:07.182Z,4.13
2023-06-08T14:54:34.939Z,4.57
2023-06-08T14:57:03.197Z,4.83
2023-06-08T14:59:31.415Z,3.90
2023-06-08T15:01:59.195Z,4.50
2023-06-08T15:04:28.382Z,4.50
2023-06-08T15:06:56.223Z,3.93
2023-06-08T15:09:24.343Z,4.50
2023-06-08T15:11:52.094Z,4.87
2023-06-08T15:14:19.780Z,4.20
2023-06-08T15:16:47.536Z,4.73
2023-06-08T15:19:15.928Z,4.00
2023-06-08T15:21:45.316Z,4.67
2023-06-08T15:24:13.309Z,4.53
2023-06-08T15:26:41.580Z,5.37
2023-06-08T15:29:12.818Z,4.20
2023-06-08T15:31:41.824Z,4.37
2023-06-08T15:34:09.720Z,5.07
2023-06-08T15:36:37.621Z,4.13
2023-06-08T15:39:06.782Z,4.13
2023-06-08T15:41:34.468Z,4.20
2023-06-08T15:44:02.848Z,4.33
2023-06-08T15:46:30.567Z,4.83
2023-06-08T15:48:58.337Z,4.73
2023-06-08T15:51:29.866Z,4.60
2023-06-08T15:53:58.433Z,3.83
2023-06-08T15:56:27.717Z,4.50
2023-06-08T15:58:56.119Z,4.00
2023-06-08T16:01:24.172Z,4.77
2023-06-08T16:03:51.932Z,4.13
2023-06-08T16:06:19.883Z,4.10
2023-06-08T16:08:47.646Z,4.23
2023-06-08T16:11:15.320Z,4.30
2023-06-08T16:13:46.321Z,4.93
2023-06-08T16:16:14.015Z,3.77
2023-06-08T16:18:42.163Z,4.37
2023-06-08T16:21:09.865Z,4.77
2023-06-08T16:23:37.599Z,4.47
2023-06-08T16:26:05.442Z,4.53
2023-06-08T16:28:33.293Z,4.20
2023-06-08T16:31:02.348Z,4.13
2023-06-08T16:33:30.847Z,5.20
2023-06-08T16:35:58.523Z,3.73
2023-06-08T16:38:26.219Z,4.40
2023-06-08T16:40:54.049Z,4.20
2023-06-08T16:43:21.806Z,3.93
2023-06-08T16:45:50.135Z,3.40
2023-06-08T16:48:19.284Z,4.43
2023-06-08T16:50:47.120Z,4.60
2023-06-08T16:53:14.973Z,3.97
2023-06-08T16:55:42.684Z,4.00
2023-06-08T16:58:10.448Z,4.40
2023-06-08T17:00:38.252Z,4.03
2023-06-08T17:03:06.385Z,5.80
2023-06-08T17:05:35.481Z,4.57
2023-06-08T17:08:03.157Z,4.87
2023-06-08T17:10:32.015Z,4.07
2023-06-08T17:12:59.718Z,4.50
2023-06-08T17:15:27.480Z,4.00
2023-06-08T17:17:55.327Z,3.90
2023-06-08T17:20:23.967Z,4.23
2023-06-08T17:22:53.205Z,4.27
2023-06-08T17:25:20.956Z,4.07
2023-06-08T17:27:48.640Z,3.90
2023-06-08T17:30:16.481Z,3.57
2023-06-08T17:32:44.237Z,4.47
2023-06-08T17:35:12.012Z,3.60
2023-06-08T17:37:39.936Z,3.30
2023-06-08T17:40:10.652Z,2.90
2023-06-08T17:42:38.380Z,2.97
2023-06-08T17:45:07.180Z,3.63
2023-06-08T17:47:35.378Z,3.97
2023-06-08T17:50:03.099Z,3.23
2023-06-08T17:52:30.846Z,3.40
2023-06-08T17:54:58.601Z,3.07
2023-06-08T17:57:27.717Z,3.30
2023-06-08T17:59:55.413Z,2.93
2023-06-08T18:02:23.166Z,2.97
2023-06-08T18:04:50.877Z,3.43
2023-06-08T18:07:18.616Z,2.57
2023-06-08T18:09:46.292Z,3.00
2023-06-08T18:12:13.962Z,2.77
2023-06-08T18:14:43.067Z,2.73
2023-06-08T18:17:10.879Z,2.80
2023-06-08T18:19:38.804Z,4.10
2023-06-08T18:22:06.705Z,3.00
2023-06-08T18:24:34.401Z,3.40
2023-06-08T18:27:02.116Z,3.57
2023-06-08T18:29:29.797Z,3.30
2023-06-08T18:31:58.937Z,2.97
2023-06-08T18:34:26.772Z,3.60
2023-06-08T18:36:54.527Z,3.07
2023-06-08T18:39:22.234Z,2.77
2023-06-08T18:41:50.413Z,2.70
2023-06-08T18:44:18.114Z,2.83
2023-06-08T18:46:46.277Z,3.07
2023-06-08T18:49:20.350Z,3.97
2023-06-08T18:51:48.073Z,3.83
2023-06-08T18:54:15.999Z,3.03
2023-06-08T18:56:43.710Z,3.30
2023-06-08T18:59:11.415Z,3.00
2023-06-08T19:01:39.674Z,3.10
2023-06-08T19:04:07.468Z,3.63
2023-06-08T19:06:37.423Z,2.77
2023-06-08T19:09:05.162Z,2.87
2023-06-08T19:11:32.882Z,2.97
2023-06-08T19:14:02.230Z,3.03
2023-06-08T19:16:32.814Z,3.20
2023-06-08T19:19:06.549Z,2.27
2023-06-08T19:21:34.250Z,3.03
2023-06-08T19:24:04.190Z,3.80
2023-06-08T19:26:32.064Z,3.07
2023-06-08T19:29:00.000Z,3.23
2023-06-08T19:31:27.919Z,3.00
2023-06-08T19:33:55.664Z,3.10
2023-06-08T19:36:24.079Z,3.10
2023-06-08T19:38:54.276Z,2.77
2023-06-08T19:41:23.747Z,2.73
2023-06-08T19:43:51.818Z,3.00
2023-06-08T19:46:19.628Z,3.43
2023-06-08T19:48:48.048Z,3.03
2023-06-08T19:51:15.868Z,3.43
2023-06-08T19:53:43.674Z,2.97
2023-06-08T19:56:11.415Z,2.87
2023-06-08T19:58:40.749Z,3.20
2023-06-08T20:01:09.192Z,2.73
2023-06-08T20:03:37.079Z,3.30
2023-06-08T20:06:05.306Z,3.37
2023-06-08T20:08:32.998Z,3.43
2023-06-08T20:11:00.776Z,3.30
2023-06-08T20:13:28.493Z,2.93
2023-06-08T20:15:57.562Z,3.07
2023-06-08T20:18:25.326Z,3.63
2023-06-08T20:20:53.052Z,3.23
2023-06-08T20:23:20.772Z,3.67
2023-06-08T20:25:48.572Z,3.50
2023-06-08T20:28:16.330Z,2.97
2023-06-08T20:30:44.004Z,3.30
2023-06-08T20:33:13.137Z,3.17
2023-06-08T20:35:40.836Z,3.60
2023-06-08T20:38:08.584Z,3.13
2023-06-08T20:40:36.725Z,3.67
2023-06-08T20:43:04.483Z,3.50
2023-06-08T20:45:32.181Z,3.97
2023-06-08T20:47:59.914Z,3.43
2023-06-08T20:50:29.024Z,3.77
2023-06-08T20:52:57.958Z,3.53
2023-06-08T20:55:25.847Z,3.90
2023-06-08T20:57:53.564Z,3.37
2023-06-08T21:00:21.688Z,3.90
2023-06-08T21:02:51.146Z,3.90
2023-06-08T21:05:20.822Z,3.70
2023-06-08T21:07:50.021Z,4.47
2023-06-08T21:10:17.913Z,3.87
2023-06-08T21:12:45.689Z,4.20
2023-06-08T21:15:13.367Z,4.03
2023-06-08T21:17:41.167Z,3.87
2023-06-08T21:20:09.960Z,3.63
2023-06-08T21:22:37.691Z,4.20
2023-06-08T21:25:07.475Z,4.97
2023-06-08T21:27:35.409Z,4.00
2023-06-08T21:30:03.633Z,3.37
2023-06-08T21:32:31.506Z,3.30
2023-06-08T21:34:59.254Z,3.77
2023-06-08T21:37:27.796Z,3.70
2023-06-08T21:39:55.560Z,3.40
2023-06-08T21:42:24.652Z,3.20
2023-06-08T21:44:53.591Z,3.77
2023-06-08T21:47:21.341Z,3.27
2023-06-08T21:49:49.076Z,3.93
2023-06-08T21:52:17.115Z,4.20
2023-06-08T21:54:47.837Z,4.07
2023-06-08T21:57:16.045Z,3.80
2023-06-08T21:59:45.518Z,3.40
2023-06-08T22:02:13.307Z,3.43
2023-06-08T22:04:41.118Z,2.80
2023-06-08T22:07:08.838Z,3.63
2023-06-08T22:09:37.642Z,3.40
2023-06-08T22:12:06.585Z,3.40
2023-06-08T22:14:34.326Z,4.00
2023-06-08T22:17:03.447Z,3.80
2023-06-08T22:19:32.863Z,3.57
2023-06-08T22:22:02.015Z,4.43
2023-06-08T22:24:29.723Z,3.77
2023-06-08T22:26:57.408Z,4.30
2023-06-08T22:29:25.106Z,3.37
2023-06-08T22:31:52.843Z,2.90
2023-06-08T22:34:21.953Z,3.60
2023-06-08T22:36:49.627Z,3.93
2023-06-08T22:39:17.335Z,4.43
2023-06-08T22:41:45.029Z,4.10
2023-06-08T22:44:13.993Z,5.13
2023-06-08T22:46:42.556Z,3.97
2023-06-08T22:49:11.510Z,4.13
2023-06-08T22:51:41.911Z,3.73
2023-06-08T22:54:10.126Z,4.23
2023-06-08T22:56:37.823Z,3.00
2023-06-08T22:59:05.539Z,4.30
2023-06-08T23:01:33.313Z,4.37
2023-06-08T23:04:01.036Z,3.60
2023-06-08T23:06:28.794Z,4.63
2023-06-08T23:09:03.872Z,4.10
2023-06-08T23:11:33.218Z,4.30
2023-06-08T23:14:04.365Z,3.83
2023-06-08T23:16:32.615Z,3.90
2023-06-08T23:19:01.880Z,4.83
2023-06-08T23:21:32.500Z,4.40
2023-06-08T23:24:01.591Z,5.77
2023-06-08T23:26:29.911Z,4.47
2023-06-08T23:28:58.134Z,3.97
2023-06-08T23:31:26.044Z,4.00
2023-06-08T23:33:54.044Z,4.50
2023-06-08T23:36:21.880Z,3.83
2023-06-08T23:38:49.915Z,3.87
2023-06-08T23:41:19.010Z,4.70
2023-06-08T23:43:46.946Z,4.43
2023-06-08T23:46:15.617Z,4.47
2023-06-08T23:48:44.009Z,4.30
2023-06-08T23:51:12.781Z,3.70
2023-06-08T23:53:40.491Z,3.93
2023-06-08T23:56:08.251Z,4.70
2023-06-08T23:58:37.341Z,4.83
